createdAt,value
2022-12-08T00:01:10.879Z,12.52
2022-12-08T00:03:38.250Z,12.40
2022-12-08T00:06:25.017Z,15.52
2022-12-08T00:09:10.453Z,19.52
2022-12-08T00:11:37.284Z,14.85
2022-12-08T00:14:04.109Z,12.90
2022-12-08T00:16:31.795Z,16.70
2022-12-08T00:18:58.627Z,14.90
2022-12-08T00:21:25.472Z,13.00
2022-12-08T00:23:54.712Z,13.98
2022-12-08T00:26:21.614Z,13.50
2022-12-08T00:28:48.427Z,15.93
2022-12-08T00:31:15.313Z,12.63
2022-12-08T00:33:42.193Z,13.43
2022-12-08T00:36:10.029Z,13.10
2022-12-08T00:38:37.801Z,11.65
2022-12-08T00:41:07.256Z,13.60
2022-12-08T00:43:34.031Z,14.68
2022-12-08T00:46:00.938Z,16.50
2022-12-08T00:48:27.739Z,15.43
2022-12-08T00:50:54.544Z,13.55
2022-12-08T00:53:21.355Z,11.48
2022-12-08T00:55:48.158Z,14.95
2022-12-08T00:58:14.986Z,17.02
2022-12-08T01:00:42.542Z,15.80
2022-12-08T01:03:10.618Z,16.15
2022-12-08T01:05:37.505Z,11.98
2022-12-08T01:08:08.659Z,16.75
2022-12-08T01:10:36.465Z,13.52
2022-12-08T01:13:03.397Z,14.55
2022-12-08T01:15:30.239Z,13.95
2022-12-08T01:17:57.018Z,15.90
2022-12-08T01:20:23.969Z,15.88
2022-12-08T01:22:50.774Z,14.95
2022-12-08T01:25:17.760Z,14.23
2022-12-08T01:27:44.564Z,13.45
2022-12-08T01:30:11.598Z,14.80
2022-12-08T01:32:38.394Z,16.13
2022-12-08T01:35:05.335Z,16.35
2022-12-08T01:37:32.155Z,15.00
2022-12-08T01:39:58.920Z,17.08
2022-12-08T01:42:25.799Z,14.38
2022-12-08T01:44:57.805Z,13.68
2022-12-08T01:49:51.429Z,11.23
2022-12-08T01:52:22.738Z,12.38
2022-12-08T01:54:52.728Z,12.70
2022-12-08T01:57:24.914Z,12.80
2022-12-08T01:59:55.186Z,12.35
2022-12-08T02:02:23.084Z,12.65
2022-12-08T02:04:50.025Z,12.73
2022-12-08T02:07:17.846Z,13.45
2022-12-08T02:09:45.310Z,12.95
2022-12-08T02:12:12.278Z,14.73
2022-12-08T02:14:39.178Z,14.55
2022-12-08T02:17:12.833Z,12.48
2022-12-08T02:19:51.849Z,17.15
2022-12-08T02:22:18.663Z,13.00
2022-12-08T02:24:51.638Z,12.68
2022-12-08T02:27:30.684Z,12.95
2022-12-08T02:30:15.994Z,12.35
2022-12-08T02:32:57.885Z,11.93
2022-12-08T02:35:24.662Z,11.88
2022-12-08T02:38:06.473Z,14.65
2022-12-08T02:40:33.238Z,13.40
2022-12-08T02:43:06.561Z,12.55
2022-12-08T02:45:33.288Z,14.20
2022-12-08T02:48:00.390Z,13.65
2022-12-08T02:50:28.020Z,11.55
2022-12-08T02:52:55.195Z,11.60
2022-12-08T02:55:25.290Z,11.88
2022-12-08T02:58:07.348Z,12.35
2022-12-08T03:00:41.701Z,13.20
2022-12-08T03:03:13.643Z,11.85
2022-12-08T03:08:22.768Z,12.35
2022-12-08T03:10:52.647Z,12.13
2022-12-08T03:13:30.741Z,15.27
2022-12-08T03:15:57.772Z,10.75
2022-12-08T03:18:28.770Z,14.25
2022-12-08T03:20:56.083Z,12.38
2022-12-08T03:23:23.858Z,12.55
2022-12-08T03:25:56.978Z,11.32
2022-12-08T03:28:24.024Z,13.80
2022-12-08T03:30:54.065Z,14.93
2022-12-08T03:33:29.543Z,13.05
2022-12-08T03:35:57.168Z,13.50
2022-12-08T03:38:24.062Z,13.95
2022-12-08T03:41:09.708Z,14.10
2022-12-08T03:43:36.527Z,13.13
2022-12-08T03:46:03.383Z,14.32
2022-12-08T03:48:30.285Z,14.88
2022-12-08T03:50:57.134Z,13.00
2022-12-08T03:53:23.948Z,16.10
2022-12-08T03:55:50.732Z,15.30
2022-12-08T03:58:17.559Z,13.27
2022-12-08T04:00:44.711Z,12.30
2022-12-08T04:03:11.528Z,11.32
2022-12-08T04:05:38.337Z,12.35
2022-12-08T04:08:05.320Z,13.80
2022-12-08T04:10:32.190Z,13.95
2022-12-08T04:12:59.030Z,13.75
2022-12-08T04:15:25.826Z,12.65
2022-12-08T04:17:52.605Z,12.00
2022-12-08T04:20:19.440Z,12.57
2022-12-08T04:22:46.245Z,13.73
2022-12-08T04:25:13.342Z,13.38
2022-12-08T04:27:40.121Z,16.55
2022-12-08T04:30:07.506Z,14.00
2022-12-08T04:32:34.513Z,14.93
2022-12-08T04:35:01.331Z,12.27
2022-12-08T04:37:28.508Z,13.02
2022-12-08T04:39:55.340Z,16.45
2022-12-08T04:42:22.158Z,14.95
2022-12-08T04:44:48.985Z,16.50
2022-12-08T04:47:15.791Z,15.05
2022-12-08T04:49:42.585Z,11.02
2022-12-08T04:52:09.398Z,11.63
2022-12-08T04:54:36.211Z,12.63
2022-12-08T04:57:02.976Z,12.95
2022-12-08T04:59:29.840Z,12.70
2022-12-08T05:01:56.824Z,12.38
2022-12-08T05:04:23.721Z,14.27
2022-12-08T05:06:50.522Z,17.15
2022-12-08T05:09:17.327Z,14.48
2022-12-08T05:11:48.806Z,14.35
2022-12-08T05:16:43.213Z,12.75
2022-12-08T05:19:10.358Z,14.70
2022-12-08T05:21:37.270Z,10.55
2022-12-08T05:24:04.298Z,13.13
2022-12-08T05:26:31.118Z,13.95
2022-12-08T05:28:58.108Z,14.07
2022-12-08T05:31:25.234Z,13.20
2022-12-08T05:33:52.342Z,15.63
2022-12-08T05:36:19.561Z,11.23
2022-12-08T05:38:47.070Z,12.30
2022-12-08T05:41:14.856Z,13.68
2022-12-08T05:43:41.661Z,12.48
2022-12-08T05:46:08.916Z,14.20
2022-12-08T05:48:36.104Z,12.18
2022-12-08T05:51:03.242Z,13.23
2022-12-08T05:53:30.025Z,12.40
2022-12-08T05:55:56.807Z,13.65
2022-12-08T05:58:23.803Z,12.48
2022-12-08T06:00:50.930Z,13.57
2022-12-08T06:03:18.595Z,12.60
2022-12-08T06:05:46.676Z,12.82
2022-12-08T06:08:14.147Z,12.80
2022-12-08T06:10:42.421Z,12.60
2022-12-08T06:13:09.247Z,15.23
2022-12-08T06:15:36.748Z,15.43
2022-12-08T06:18:03.879Z,13.50
2022-12-08T06:20:30.827Z,15.00
2022-12-08T06:22:57.821Z,10.90
2022-12-08T06:25:24.908Z,13.20
2022-12-08T06:27:51.819Z,11.65
2022-12-08T06:30:18.688Z,13.00
2022-12-08T06:32:45.476Z,10.38
2022-12-08T06:35:12.288Z,10.95
2022-12-08T06:37:39.080Z,9.25
2022-12-08T06:40:06.568Z,11.30
2022-12-08T06:42:46.941Z,13.60
2022-12-08T06:45:17.491Z,12.85
2022-12-08T06:47:44.323Z,15.93
2022-12-08T06:50:11.749Z,11.50
2022-12-08T06:52:46.760Z,13.85
2022-12-08T06:55:42.532Z,11.35
2022-12-08T06:58:06.778Z,13.48
2022-12-08T07:00:33.610Z,14.68
2022-12-08T07:03:00.501Z,13.23
2022-12-08T07:05:27.480Z,12.20
2022-12-08T07:07:54.383Z,12.30
2022-12-08T07:10:21.202Z,17.58
2022-12-08T07:12:47.998Z,12.27
2022-12-08T07:15:14.894Z,17.15
2022-12-08T07:17:41.725Z,14.50
2022-12-08T07:20:08.906Z,13.68
2022-12-08T07:22:35.730Z,15.15
2022-12-08T07:25:02.520Z,13.85
2022-12-08T07:27:29.309Z,18.25
2022-12-08T07:29:56.392Z,16.02
2022-12-08T07:32:23.305Z,14.52
2022-12-08T07:34:50.083Z,12.32
2022-12-08T07:37:16.865Z,15.75
2022-12-08T07:39:44.277Z,17.10
2022-12-08T07:42:11.069Z,17.25
2022-12-08T07:44:37.873Z,14.73
2022-12-08T07:47:04.893Z,11.77
2022-12-08T07:49:31.765Z,15.27
2022-12-08T07:51:58.646Z,15.68
2022-12-08T07:54:25.484Z,13.77
2022-12-08T07:56:52.287Z,15.43
2022-12-08T07:59:19.466Z,15.30
2022-12-08T08:01:56.291Z,16.70
2022-12-08T08:04:34.397Z,13.65
2022-12-08T08:07:01.186Z,15.95
2022-12-08T08:09:27.960Z,13.70
2022-12-08T08:12:22.228Z,14.75
2022-12-08T08:14:41.688Z,13.80
2022-12-08T08:17:08.663Z,13.10
2022-12-08T08:19:35.563Z,19.48
2022-12-08T08:22:02.384Z,15.15
2022-12-08T08:24:29.201Z,16.80
2022-12-08T08:26:56.009Z,18.45
2022-12-08T08:29:22.869Z,18.95
2022-12-08T08:31:50.275Z,16.70
2022-12-08T08:34:17.158Z,16.20
2022-12-08T08:36:44.143Z,17.00
2022-12-08T08:39:11.063Z,15.23
2022-12-08T08:41:37.914Z,12.82
2022-12-08T08:44:04.861Z,16.23
2022-12-08T08:46:32.064Z,16.10
2022-12-08T08:48:58.961Z,17.08
2022-12-08T08:51:25.827Z,17.70
2022-12-08T08:53:52.714Z,15.80
2022-12-08T08:56:19.782Z,15.98
2022-12-08T08:58:50.417Z,13.80
2022-12-08T09:01:18.676Z,15.55
2022-12-08T09:03:45.711Z,18.23
2022-12-08T09:06:13.138Z,19.13
2022-12-08T09:08:40.741Z,14.82
2022-12-08T09:11:07.988Z,15.13
2022-12-08T09:13:34.919Z,13.25
2022-12-08T09:16:02.847Z,14.68
2022-12-08T09:18:29.781Z,17.13
2022-12-08T09:20:56.609Z,14.40
2022-12-08T09:23:23.503Z,14.18
2022-12-08T09:25:50.355Z,15.27
2022-12-08T09:28:17.212Z,13.98
2022-12-08T09:30:44.010Z,16.90
2022-12-08T09:33:10.833Z,14.85
2022-12-08T09:35:37.997Z,18.77
2022-12-08T09:38:04.966Z,17.67
2022-12-08T09:40:32.490Z,15.55
2022-12-08T09:43:25.697Z,17.90
2022-12-08T09:45:52.864Z,11.65
2022-12-08T09:48:21.204Z,17.25
2022-12-08T09:50:57.379Z,18.00
2022-12-08T09:53:35.081Z,12.20
2022-12-08T09:56:11.526Z,13.77
2022-12-08T09:58:48.483Z,14.15
2022-12-08T10:01:15.559Z,18.77
2022-12-08T10:03:42.416Z,19.23
2022-12-08T10:06:27.906Z,15.05
2022-12-08T10:08:57.586Z,18.52
2022-12-08T10:11:29.245Z,15.50
2022-12-08T10:14:04.175Z,17.85
2022-12-08T10:16:36.871Z,15.80
2022-12-08T10:19:12.838Z,15.02
2022-12-08T10:21:39.870Z,13.95
2022-12-08T10:24:12.291Z,15.85
2022-12-08T10:26:39.253Z,17.80
2022-12-08T10:29:07.107Z,17.05
2022-12-08T10:31:33.993Z,16.60
2022-12-08T10:34:01.966Z,16.15
2022-12-08T10:36:52.505Z,14.43
2022-12-08T10:39:39.718Z,18.17
2022-12-08T10:42:08.451Z,14.35
2022-12-08T10:44:41.046Z,13.23
2022-12-08T10:47:11.854Z,17.17
2022-12-08T10:49:38.779Z,14.48
2022-12-08T10:52:09.622Z,13.48
2022-12-08T10:54:38.406Z,14.13
2022-12-08T10:57:05.222Z,13.15
2022-12-08T10:59:33.717Z,14.35
2022-12-08T11:02:01.031Z,12.57
2022-12-08T11:04:38.210Z,16.98
2022-12-08T11:07:05.836Z,14.60
2022-12-08T11:09:35.788Z,13.00
2022-12-08T11:12:09.458Z,15.48
2022-12-08T11:14:45.830Z,11.65
2022-12-08T11:17:15.991Z,13.75
2022-12-08T11:19:44.081Z,12.30
2022-12-08T11:22:26.286Z,10.30
2022-12-08T11:24:59.293Z,13.90
2022-12-08T11:27:26.316Z,12.23
2022-12-08T11:29:53.129Z,9.50
2022-12-08T11:32:20.353Z,11.27
2022-12-08T11:34:56.589Z,15.35
2022-12-08T11:37:23.315Z,9.55
2022-12-08T11:39:51.182Z,13.10
2022-12-08T11:42:21.071Z,11.80
2022-12-08T11:44:53.478Z,9.02
2022-12-08T11:47:26.367Z,8.52
2022-12-08T11:50:16.645Z,9.55
2022-12-08T11:52:47.764Z,8.68
2022-12-08T11:55:23.653Z,8.43
2022-12-08T11:57:51.285Z,8.25
2022-12-08T12:00:18.389Z,8.80
2022-12-08T12:02:48.472Z,9.00
2022-12-08T12:05:39.757Z,9.25
2022-12-08T12:08:30.262Z,8.23
2022-12-08T12:11:09.720Z,9.70
2022-12-08T12:14:06.018Z,10.27
2022-12-08T12:16:42.462Z,9.90
2022-12-08T12:19:12.219Z,8.82
2022-12-08T12:21:40.748Z,14.10
2022-12-08T12:24:07.652Z,10.50
2022-12-08T12:26:39.227Z,13.80
2022-12-08T12:29:08.479Z,8.65
2022-12-08T12:31:36.992Z,10.43
2022-12-08T12:34:27.063Z,15.38
2022-12-08T12:36:55.725Z,13.07
2022-12-08T12:39:25.861Z,12.95
2022-12-08T12:41:57.538Z,9.80
2022-12-08T12:44:36.624Z,11.05
2022-12-08T12:47:05.347Z,9.75
2022-12-08T12:49:43.656Z,10.05
2022-12-08T12:52:10.522Z,14.30
2022-12-08T12:54:42.033Z,9.48
2022-12-08T12:57:08.799Z,8.10
2022-12-08T12:59:41.188Z,10.02
2022-12-08T13:02:26.810Z,8.68
2022-12-08T13:04:56.851Z,11.23
2022-12-08T13:07:25.768Z,12.35
2022-12-08T13:10:00.654Z,9.35
2022-12-08T13:12:28.232Z,9.43
2022-12-08T13:14:58.689Z,8.65
2022-12-08T13:17:29.946Z,7.53
2022-12-08T13:19:58.513Z,11.40
2022-12-08T13:22:44.110Z,8.77
2022-12-08T13:25:35.259Z,8.85
2022-12-08T13:28:13.414Z,9.02
2022-12-08T13:30:43.476Z,6.30
2022-12-08T13:33:19.360Z,9.15
2022-12-08T13:35:49.202Z,8.00
2022-12-08T13:38:17.407Z,15.85
2022-12-08T13:40:44.726Z,16.20
2022-12-08T13:43:20.753Z,12.52
2022-12-08T13:50:05.266Z,7.97
2022-12-08T13:59:54.274Z,8.75
2022-12-08T14:02:36.300Z,8.77
2022-12-08T14:05:26.321Z,8.82
2022-12-08T14:07:53.138Z,6.78
2022-12-08T14:10:22.194Z,9.52
2022-12-08T14:12:53.904Z,8.05
2022-12-08T14:17:51.378Z,9.85
2022-12-08T14:20:31.426Z,9.90
2022-12-08T14:22:59.522Z,9.73
2022-12-08T14:25:29.774Z,7.57
2022-12-08T14:27:57.891Z,7.75
2022-12-08T14:30:26.132Z,9.00
2022-12-08T14:32:54.947Z,11.80
2022-12-08T14:35:27.496Z,13.43
2022-12-08T14:37:58.905Z,10.85
2022-12-08T14:40:36.098Z,10.27
2022-12-08T14:43:09.183Z,8.48
2022-12-08T14:45:39.041Z,7.88
2022-12-08T14:48:38.444Z,8.23
2022-12-08T14:51:11.571Z,8.15
2022-12-08T14:53:38.585Z,7.15
2022-12-08T14:56:17.683Z,7.30
2022-12-08T14:58:44.683Z,8.77
2022-12-08T15:01:17.168Z,7.35
2022-12-08T15:03:48.987Z,6.15
2022-12-08T15:06:20.232Z,8.02
2022-12-08T15:08:54.858Z,5.85
2022-12-08T15:11:21.728Z,10.18
2022-12-08T15:13:49.974Z,6.45
2022-12-08T15:16:25.370Z,5.65
2022-12-08T15:19:19.085Z,7.60
2022-12-08T15:21:46.116Z,5.45
2022-12-08T15:24:14.041Z,6.40
2022-12-08T15:26:42.417Z,5.50
2022-12-08T15:29:10.010Z,6.22
2022-12-08T15:31:37.272Z,4.35
2022-12-08T15:34:04.156Z,5.18
2022-12-08T15:36:33.946Z,4.85
2022-12-08T15:39:00.834Z,7.30
2022-12-08T15:41:27.660Z,5.18
2022-12-08T15:43:54.471Z,5.10
2022-12-08T15:46:21.306Z,6.90
2022-12-08T15:48:48.101Z,5.38
2022-12-08T15:51:15.589Z,4.32
2022-12-08T15:53:42.556Z,6.38
2022-12-08T15:58:57.718Z,7.32
2022-12-08T16:01:25.740Z,6.40
2022-12-08T16:04:36.919Z,4.70
2022-12-08T16:09:31.534Z,6.07
2022-12-08T16:15:47.257Z,5.00
2022-12-08T16:17:33.874Z,6.95
2022-12-08T16:20:00.852Z,7.32
2022-12-08T16:25:20.670Z,6.30
2022-12-08T16:30:36.591Z,7.60
2022-12-08T16:33:03.453Z,7.78
2022-12-08T16:35:30.475Z,5.03
2022-12-08T16:37:57.531Z,8.45
2022-12-08T16:40:24.394Z,8.48
2022-12-08T16:42:51.270Z,8.75
2022-12-08T16:45:23.089Z,8.60
2022-12-08T16:50:18.416Z,8.30
2022-12-08T16:52:45.988Z,8.07
2022-12-08T16:55:14.798Z,9.15
2022-12-08T16:57:41.853Z,13.73
2022-12-08T17:00:10.074Z,8.77
2022-12-08T17:02:36.921Z,7.82
2022-12-08T17:05:04.153Z,7.95
2022-12-08T17:07:31.075Z,7.53
2022-12-08T17:09:58.478Z,8.50
2022-12-08T17:12:25.319Z,11.25
2022-12-08T17:14:52.142Z,5.85
2022-12-08T17:17:18.983Z,9.98
2022-12-08T17:19:45.925Z,11.88
2022-12-08T17:22:12.754Z,11.65
2022-12-08T17:24:39.572Z,10.05
2022-12-08T17:27:06.813Z,15.02
2022-12-08T17:29:36.895Z,14.13
2022-12-08T17:32:03.873Z,15.20
2022-12-08T17:34:30.808Z,12.85
2022-12-08T17:36:57.642Z,10.10
2022-12-08T17:39:25.256Z,9.98
2022-12-08T17:41:52.127Z,9.88
2022-12-08T17:44:19.448Z,10.75
2022-12-08T17:46:52.220Z,13.07
2022-12-08T17:49:21.611Z,12.27
2022-12-08T17:51:49.504Z,12.75
2022-12-08T17:54:17.180Z,17.67
2022-12-08T17:56:44.365Z,14.35
2022-12-08T17:59:11.913Z,15.27
2022-12-08T18:01:39.237Z,13.32
2022-12-08T18:04:07.304Z,13.30
2022-12-08T18:06:34.931Z,13.70
2022-12-08T18:09:01.902Z,13.52
2022-12-08T18:11:33.134Z,14.60
2022-12-08T18:13:59.911Z,13.73
2022-12-08T18:16:27.324Z,13.68
2022-12-08T18:18:54.229Z,15.77
2022-12-08T18:21:23.628Z,15.38
2022-12-08T18:23:50.832Z,18.73
2022-12-08T18:26:17.726Z,15.90
2022-12-08T18:28:44.621Z,13.77
2022-12-08T18:31:12.821Z,19.10
2022-12-08T18:33:40.442Z,15.52
2022-12-08T18:36:08.467Z,18.10
2022-12-08T18:38:35.239Z,16.17
2022-12-08T18:41:06.105Z,18.63
2022-12-08T18:43:32.895Z,18.05
2022-12-08T18:46:04.132Z,16.23
2022-12-08T18:48:31.168Z,16.02
2022-12-08T18:50:58.039Z,20.95
2022-12-08T18:53:24.875Z,16.63
2022-12-08T18:55:51.744Z,16.42
2022-12-08T18:58:18.809Z,18.65
2022-12-08T19:00:45.816Z,17.85
2022-12-08T19:03:12.750Z,18.33
2022-12-08T19:05:39.642Z,17.65
2022-12-08T19:08:06.781Z,19.38
2022-12-08T19:10:35.133Z,17.55
2022-12-08T19:13:01.908Z,19.92
2022-12-08T19:15:28.850Z,20.48
2022-12-08T19:17:55.769Z,25.42
2022-12-08T19:20:22.549Z,18.45
2022-12-08T19:22:49.339Z,18.73
2022-12-08T19:25:16.145Z,22.00
2022-12-08T19:27:43.637Z,19.27
2022-12-08T19:30:10.892Z,19.88
2022-12-08T19:32:37.782Z,17.23
2022-12-08T19:35:07.513Z,25.50
2022-12-08T19:37:34.745Z,20.55
2022-12-08T19:40:20.242Z,22.17
2022-12-08T19:43:05.833Z,18.02
2022-12-08T19:45:35.308Z,19.20
2022-12-08T19:48:02.193Z,18.90
2022-12-08T19:50:38.429Z,22.65
2022-12-08T19:53:06.533Z,19.55
2022-12-08T19:55:33.534Z,23.02
2022-12-08T19:58:01.965Z,21.67
2022-12-08T20:00:30.022Z,23.38
2022-12-08T20:02:57.134Z,26.55
2022-12-08T20:05:24.918Z,29.92
2022-12-08T20:07:55.555Z,18.92
2022-12-08T20:10:30.168Z,24.10
2022-12-08T20:13:15.716Z,28.10
2022-12-08T20:15:43.252Z,25.63
2022-12-08T20:18:10.672Z,29.73
2022-12-08T20:20:37.930Z,26.85
2022-12-08T20:23:04.823Z,29.20
2022-12-08T20:25:31.607Z,29.58
2022-12-08T20:27:58.428Z,28.95
2022-12-08T20:30:25.269Z,29.33
2022-12-08T20:32:52.146Z,31.83
2022-12-08T20:35:18.966Z,26.38
2022-12-08T20:37:45.940Z,35.85
2022-12-08T20:40:12.972Z,33.10
2022-12-08T20:42:39.800Z,29.63
2022-12-08T20:45:09.193Z,30.10
2022-12-08T20:47:36.607Z,31.45
2022-12-08T20:50:04.957Z,32.55
2022-12-08T20:52:32.263Z,27.95
2022-12-08T20:54:59.161Z,32.67
2022-12-08T20:57:26.003Z,28.40
2022-12-08T20:59:52.845Z,27.08
2022-12-08T21:02:19.798Z,31.75
2022-12-08T21:04:46.854Z,33.63
2022-12-08T21:07:14.161Z,30.60
2022-12-08T21:09:41.288Z,28.45
2022-12-08T21:12:08.222Z,33.30
2022-12-08T21:14:35.135Z,29.58
2022-12-08T21:17:02.293Z,30.10
2022-12-08T21:19:29.245Z,27.52
2022-12-08T21:21:56.101Z,26.75
2022-12-08T21:24:22.919Z,34.20
2022-12-08T21:26:49.821Z,28.35
2022-12-08T21:29:16.984Z,26.77
2022-12-08T21:31:43.943Z,29.63
2022-12-08T21:34:11.487Z,29.38
2022-12-08T21:36:38.501Z,31.85
2022-12-08T21:39:11.261Z,32.80
2022-12-08T21:41:57.305Z,25.95
2022-12-08T21:44:24.647Z,31.92
2022-12-08T21:46:51.767Z,26.40
2022-12-08T21:49:18.926Z,28.25
2022-12-08T21:51:45.926Z,24.80
2022-12-08T21:54:18.294Z,22.52
2022-12-08T21:56:48.680Z,25.27
2022-12-08T21:59:16.406Z,32.92
2022-12-08T22:01:46.397Z,34.15
2022-12-08T22:04:16.416Z,30.88
2022-12-08T22:06:43.500Z,30.92
2022-12-08T22:09:14.137Z,27.80
2022-12-08T22:11:41.725Z,37.47
2022-12-08T22:14:14.878Z,34.15
2022-12-08T22:16:43.010Z,29.95
2022-12-08T22:19:10.218Z,31.55
2022-12-08T22:21:38.408Z,25.33
2022-12-08T22:24:05.752Z,24.80
2022-12-08T22:26:34.972Z,29.10
2022-12-08T22:29:02.100Z,31.75
2022-12-08T22:31:29.250Z,36.25
2022-12-08T22:33:56.225Z,32.33
2022-12-08T22:36:24.502Z,33.38
2022-12-08T22:38:51.931Z,32.35
2022-12-08T22:41:19.274Z,29.90
2022-12-08T22:43:46.779Z,27.75
2022-12-08T22:46:19.223Z,27.42
2022-12-08T22:48:46.500Z,23.27
2022-12-08T22:51:13.594Z,28.45
2022-12-08T22:53:40.664Z,27.70
2022-12-08T22:56:08.383Z,42.45
2022-12-08T22:58:35.540Z,29.02
2022-12-08T23:01:02.566Z,24.88
2022-12-08T23:03:29.548Z,30.17
2022-12-08T23:05:57.370Z,24.85
2022-12-08T23:08:24.836Z,22.83
2022-12-08T23:10:52.795Z,25.58
2022-12-08T23:13:20.168Z,29.23
2022-12-08T23:15:48.201Z,26.27
2022-12-08T23:18:16.670Z,26.88
2022-12-08T23:20:43.675Z,27.70
2022-12-08T23:23:10.770Z,22.42
2022-12-08T23:25:41.352Z,27.55
2022-12-08T23:28:08.362Z,23.70
2022-12-08T23:30:35.429Z,22.55
2022-12-08T23:33:02.386Z,22.67
2022-12-08T23:35:29.488Z,23.98
2022-12-08T23:37:56.455Z,20.15
2022-12-08T23:40:23.254Z,21.90
2022-12-08T23:42:50.077Z,20.27
2022-12-08T23:45:17.166Z,19.08
2022-12-08T23:47:44.191Z,20.27
2022-12-08T23:50:12.116Z,34.47
2022-12-08T23:52:40.003Z,33.95
2022-12-08T23:55:07.834Z,25.35
2022-12-08T23:57:35.650Z,29.00
